sensor_id;sensor_type;location;lat;lon;timestamp;temperature;humidity
33093;DHT22;19456;46.104;12.908;2024-03-08T00:01:28;8.60;99.90
33093;DHT22;19456;46.104;12.908;2024-03-08T00:03:53;8.70;99.90
33093;DHT22;19456;46.104;12.908;2024-03-08T00:06:19;8.70;99.90
33093;DHT22;19456;46.104;12.908;2024-03-08T00:08:44;8.70;99.90
33093;DHT22;19456;46.104;12.908;2024-03-08T00:11:10;8.80;99.90
33093;DHT22;19456;46.104;12.908;2024-03-08T00:13:35;8.80;99.90
33093;DHT22;19456;46.104;12.908;2024-03-08T00:16:02;8.80;99.90
33093;DHT22;19456;46.104;12.908;2024-03-08T00:18:27;8.80;99.90
33093;DHT22;19456;46.104;12.908;2024-03-08T00:20:54;8.80;99.90
33093;DHT22;19456;46.104;12.908;2024-03-08T00:23:19;8.80;99.90
33093;DHT22;19456;46.104;12.908;2024-03-08T00:25:45;8.80;99.90
33093;DHT22;19456;46.104;12.908;2024-03-08T00:28:10;8.80;99.90
33093;DHT22;19456;46.104;12.908;2024-03-08T00:30:40;8.90;99.90
33093;DHT22;19456;46.104;12.908;2024-03-08T00:33:05;8.90;99.90
33093;DHT22;19456;46.104;12.908;2024-03-08T00:35:31;8.80;99.90
33093;DHT22;19456;46.104;12.908;2024-03-08T00:37:56;8.80;99.90
33093;DHT22;19456;46.104;12.908;2024-03-08T00:40:22;8.90;99.90
33093;DHT22;19456;46.104;12.908;2024-03-08T00:42:48;8.80;99.90
33093;DHT22;19456;46.104;12.908;2024-03-08T00:45:13;8.80;99.90
33093;DHT22;19456;46.104;12.908;2024-03-08T00:47:39;8.70;99.90
33093;DHT22;19456;46.104;12.908;2024-03-08T00:50:04;8.80;99.90
33093;DHT22;19456;46.104;12.908;2024-03-08T00:52:30;8.60;99.90
33093;DHT22;19456;46.104;12.908;2024-03-08T00:54:56;8.50;99.90
33093;DHT22;19456;46.104;12.908;2024-03-08T00:57:22;8.50;99.90
33093;DHT22;19456;46.104;12.908;2024-03-08T00:59:47;8.40;99.90
33093;DHT22;19456;46.104;12.908;2024-03-08T01:02:13;8.50;99.90
33093;DHT22;19456;46.104;12.908;2024-03-08T01:04:39;8.50;99.90
33093;DHT22;19456;46.104;12.908;2024-03-08T01:07:04;8.50;99.90
33093;DHT22;19456;46.104;12.908;2024-03-08T01:09:31;8.50;99.90
33093;DHT22;19456;46.104;12.908;2024-03-08T01:11:57;8.40;99.90
33093;DHT22;19456;46.104;12.908;2024-03-08T01:14:22;8.40;99.90
33093;DHT22;19456;46.104;12.908;2024-03-08T01:16:48;8.30;99.90
33093;DHT22;19456;46.104;12.908;2024-03-08T01:19:14;8.20;99.90
33093;DHT22;19456;46.104;12.908;2024-03-08T01:21:40;8.20;99.90
33093;DHT22;19456;46.104;12.908;2024-03-08T01:24:06;8.20;99.90
33093;DHT22;19456;46.104;12.908;2024-03-08T01:26:32;8.20;99.90
33093;DHT22;19456;46.104;12.908;2024-03-08T01:28:59;8.20;99.90
33093;DHT22;19456;46.104;12.908;2024-03-08T01:31:25;8.20;99.90
33093;DHT22;19456;46.104;12.908;2024-03-08T01:33:50;8.10;99.90
33093;DHT22;19456;46.104;12.908;2024-03-08T01:36:16;8.10;99.90
33093;DHT22;19456;46.104;12.908;2024-03-08T01:38:43;8.10;99.90
33093;DHT22;19456;46.104;12.908;2024-03-08T01:41:08;8.10;99.90
33093;DHT22;19456;46.104;12.908;2024-03-08T01:43:34;8.10;99.90
33093;DHT22;19456;46.104;12.908;2024-03-08T01:46:01;8.10;99.90
33093;DHT22;19456;46.104;12.908;2024-03-08T01:48:27;8.10;99.90
33093;DHT22;19456;46.104;12.908;2024-03-08T01:50:55;8.10;99.90
33093;DHT22;19456;46.104;12.908;2024-03-08T01:53:21;8.00;99.90
33093;DHT22;19456;46.104;12.908;2024-03-08T01:55:48;8.00;99.90
33093;DHT22;19456;46.104;12.908;2024-03-08T01:58:14;8.00;99.90
33093;DHT22;19456;46.104;12.908;2024-03-08T02:00:43;8.00;99.90
33093;DHT22;19456;46.104;12.908;2024-03-08T02:03:09;8.00;99.90
33093;DHT22;19456;46.104;12.908;2024-03-08T02:05:36;8.00;99.90
33093;DHT22;19456;46.104;12.908;2024-03-08T02:08:01;8.00;99.90
33093;DHT22;19456;46.104;12.908;2024-03-08T02:10:28;8.00;99.90
33093;DHT22;19456;46.104;12.908;2024-03-08T02:12:53;8.00;99.90
33093;DHT22;19456;46.104;12.908;2024-03-08T02:15:19;8.00;99.90
33093;DHT22;19456;46.104;12.908;2024-03-08T02:17:45;8.10;99.90
33093;DHT22;19456;46.104;12.908;2024-03-08T02:20:10;8.10;99.90
33093;DHT22;19456;46.104;12.908;2024-03-08T02:22:38;8.00;99.90
33093;DHT22;19456;46.104;12.908;2024-03-08T02:25:04;8.00;99.90
33093;DHT22;19456;46.104;12.908;2024-03-08T02:27:30;8.00;99.90
33093;DHT22;19456;46.104;12.908;2024-03-08T02:29:56;8.00;99.90
33093;DHT22;19456;46.104;12.908;2024-03-08T02:32:22;8.00;99.90
33093;DHT22;19456;46.104;12.908;2024-03-08T02:34:48;8.00;99.90
33093;DHT22;19456;46.104;12.908;2024-03-08T02:37:15;8.00;99.90
33093;DHT22;19456;46.104;12.908;2024-03-08T02:39:40;8.10;99.90
33093;DHT22;19456;46.104;12.908;2024-03-08T02:42:06;8.10;99.90
33093;DHT22;19456;46.104;12.908;2024-03-08T02:44:32;8.10;99.90
33093;DHT22;19456;46.104;12.908;2024-03-08T02:46:59;8.10;99.90
33093;DHT22;19456;46.104;12.908;2024-03-08T02:49:25;8.20;99.90
33093;DHT22;19456;46.104;12.908;2024-03-08T02:51:54;8.30;99.90
33093;DHT22;19456;46.104;12.908;2024-03-08T02:54:22;8.30;99.90
33093;DHT22;19456;46.104;12.908;2024-03-08T02:56:48;8.30;99.90
33093;DHT22;19456;46.104;12.908;2024-03-08T02:59:15;8.30;99.90
33093;DHT22;19456;46.104;12.908;2024-03-08T03:01:43;8.30;99.90
33093;DHT22;19456;46.104;12.908;2024-03-08T03:04:08;8.30;99.90
33093;DHT22;19456;46.104;12.908;2024-03-08T03:06:34;8.40;99.90
33093;DHT22;19456;46.104;12.908;2024-03-08T03:08:59;8.40;99.90
33093;DHT22;19456;46.104;12.908;2024-03-08T03:11:25;8.40;99.90
33093;DHT22;19456;46.104;12.908;2024-03-08T03:13:50;8.30;99.90
33093;DHT22;19456;46.104;12.908;2024-03-08T03:16:17;8.40;99.90
33093;DHT22;19456;46.104;12.908;2024-03-08T03:18:42;8.40;99.90
33093;DHT22;19456;46.104;12.908;2024-03-08T03:21:08;8.30;99.90
33093;DHT22;19456;46.104;12.908;2024-03-08T03:23:33;8.30;99.90
33093;DHT22;19456;46.104;12.908;2024-03-08T03:26:00;8.30;99.90
33093;DHT22;19456;46.104;12.908;2024-03-08T03:28:27;8.30;99.90
33093;DHT22;19456;46.104;12.908;2024-03-08T03:30:53;8.30;99.90
33093;DHT22;19456;46.104;12.908;2024-03-08T03:33:19;8.20;99.90
33093;DHT22;19456;46.104;12.908;2024-03-08T03:35:46;8.20;99.90
33093;DHT22;19456;46.104;12.908;2024-03-08T03:38:11;8.20;99.90
33093;DHT22;19456;46.104;12.908;2024-03-08T03:40:39;8.30;99.90
33093;DHT22;19456;46.104;12.908;2024-03-08T03:43:05;8.20;99.90
33093;DHT22;19456;46.104;12.908;2024-03-08T03:45:31;8.20;99.90
33093;DHT22;19456;46.104;12.908;2024-03-08T03:48:03;8.20;99.90
33093;DHT22;19456;46.104;12.908;2024-03-08T03:50:29;8.10;99.90
33093;DHT22;19456;46.104;12.908;2024-03-08T03:52:55;8.10;99.90
33093;DHT22;19456;46.104;12.908;2024-03-08T03:55:20;8.10;99.90
33093;DHT22;19456;46.104;12.908;2024-03-08T03:57:47;8.10;99.90
33093;DHT22;19456;46.104;12.908;2024-03-08T04:00:12;8.00;99.90
33093;DHT22;19456;46.104;12.908;2024-03-08T04:02:38;8.10;99.90
33093;DHT22;19456;46.104;12.908;2024-03-08T04:05:07;8.10;99.90
33093;DHT22;19456;46.104;12.908;2024-03-08T04:07:34;8.10;99.90
33093;DHT22;19456;46.104;12.908;2024-03-08T04:10:00;8.00;99.90
33093;DHT22;19456;46.104;12.908;2024-03-08T04:12:25;8.00;99.90
33093;DHT22;19456;46.104;12.908;2024-03-08T04:14:51;8.00;99.90
33093;DHT22;19456;46.104;12.908;2024-03-08T04:17:21;8.00;99.90
33093;DHT22;19456;46.104;12.908;2024-03-08T04:19:46;8.00;99.90
33093;DHT22;19456;46.104;12.908;2024-03-08T04:22:14;8.00;99.90
33093;DHT22;19456;46.104;12.908;2024-03-08T04:24:39;8.00;99.90
33093;DHT22;19456;46.104;12.908;2024-03-08T04:27:06;8.00;99.90
33093;DHT22;19456;46.104;12.908;2024-03-08T04:29:32;8.00;99.90
33093;DHT22;19456;46.104;12.908;2024-03-08T04:31:58;7.90;99.90
33093;DHT22;19456;46.104;12.908;2024-03-08T04:34:23;7.90;99.90
33093;DHT22;19456;46.104;12.908;2024-03-08T04:36:49;7.70;99.90
33093;DHT22;19456;46.104;12.908;2024-03-08T04:39:15;7.60;99.90
33093;DHT22;19456;46.104;12.908;2024-03-08T04:41:41;7.60;99.90
33093;DHT22;19456;46.104;12.908;2024-03-08T04:44:09;7.50;99.90
33093;DHT22;19456;46.104;12.908;2024-03-08T04:46:35;7.50;99.90
33093;DHT22;19456;46.104;12.908;2024-03-08T04:49:00;7.40;99.90
33093;DHT22;19456;46.104;12.908;2024-03-08T04:51:26;7.40;99.90
33093;DHT22;19456;46.104;12.908;2024-03-08T04:53:52;7.40;99.90
33093;DHT22;19456;46.104;12.908;2024-03-08T04:56:17;7.50;99.90
33093;DHT22;19456;46.104;12.908;2024-03-08T04:58:44;7.50;99.90
33093;DHT22;19456;46.104;12.908;2024-03-08T05:01:12;7.50;99.90
33093;DHT22;19456;46.104;12.908;2024-03-08T05:03:37;7.60;99.90
33093;DHT22;19456;46.104;12.908;2024-03-08T05:06:03;7.70;99.90
33093;DHT22;19456;46.104;12.908;2024-03-08T05:08:29;7.60;99.90
33093;DHT22;19456;46.104;12.908;2024-03-08T05:10:55;7.60;99.90
33093;DHT22;19456;46.104;12.908;2024-03-08T05:13:20;7.60;99.90
33093;DHT22;19456;46.104;12.908;2024-03-08T05:15:49;7.60;99.90
33093;DHT22;19456;46.104;12.908;2024-03-08T05:18:18;7.50;99.90
33093;DHT22;19456;46.104;12.908;2024-03-08T05:20:43;7.40;99.90
33093;DHT22;19456;46.104;12.908;2024-03-08T05:23:09;7.40;99.90
33093;DHT22;19456;46.104;12.908;2024-03-08T05:25:34;7.40;99.90
33093;DHT22;19456;46.104;12.908;2024-03-08T05:28:01;7.50;99.90
33093;DHT22;19456;46.104;12.908;2024-03-08T05:30:27;7.50;99.90
33093;DHT22;19456;46.104;12.908;2024-03-08T05:32:52;7.60;99.90
33093;DHT22;19456;46.104;12.908;2024-03-08T05:35:18;7.50;99.90
33093;DHT22;19456;46.104;12.908;2024-03-08T05:37:43;7.60;99.90
33093;DHT22;19456;46.104;12.908;2024-03-08T05:40:09;7.70;99.90
33093;DHT22;19456;46.104;12.908;2024-03-08T05:42:35;7.70;99.90
33093;DHT22;19456;46.104;12.908;2024-03-08T05:45:02;7.80;99.90
33093;DHT22;19456;46.104;12.908;2024-03-08T05:47:28;7.90;99.90
33093;DHT22;19456;46.104;12.908;2024-03-08T05:49:53;8.00;99.90
33093;DHT22;19456;46.104;12.908;2024-03-08T05:52:19;8.10;99.90
33093;DHT22;19456;46.104;12.908;2024-03-08T05:54:44;8.10;99.90
33093;DHT22;19456;46.104;12.908;2024-03-08T05:57:11;8.10;99.90
33093;DHT22;19456;46.104;12.908;2024-03-08T05:59:36;8.10;99.90
33093;DHT22;19456;46.104;12.908;2024-03-08T06:02:02;8.20;99.90
33093;DHT22;19456;46.104;12.908;2024-03-08T06:04:28;8.20;99.90
33093;DHT22;19456;46.104;12.908;2024-03-08T06:06:54;8.20;99.90
33093;DHT22;19456;46.104;12.908;2024-03-08T06:09:22;8.20;99.90
33093;DHT22;19456;46.104;12.908;2024-03-08T06:11:48;8.10;99.90
33093;DHT22;19456;46.104;12.908;2024-03-08T06:14:14;8.10;99.90
33093;DHT22;19456;46.104;12.908;2024-03-08T06:16:46;8.10;99.90
33093;DHT22;19456;46.104;12.908;2024-03-08T06:19:12;8.10;99.90
33093;DHT22;19456;46.104;12.908;2024-03-08T06:21:38;8.10;99.90
33093;DHT22;19456;46.104;12.908;2024-03-08T06:24:04;8.00;99.90
33093;DHT22;19456;46.104;12.908;2024-03-08T06:26:29;8.00;99.90
33093;DHT22;19456;46.104;12.908;2024-03-08T06:35:13;7.90;99.90
33093;DHT22;19456;46.104;12.908;2024-03-08T06:37:41;7.80;99.90
33093;DHT22;19456;46.104;12.908;2024-03-08T06:40:09;7.70;99.90
33093;DHT22;19456;46.104;12.908;2024-03-08T06:42:39;7.70;99.90
33093;DHT22;19456;46.104;12.908;2024-03-08T06:45:05;7.60;99.90
33093;DHT22;19456;46.104;12.908;2024-03-08T06:47:31;7.60;99.90
33093;DHT22;19456;46.104;12.908;2024-03-08T06:49:59;7.60;99.90
33093;DHT22;19456;46.104;12.908;2024-03-08T06:52:25;7.60;99.90
33093;DHT22;19456;46.104;12.908;2024-03-08T06:54:52;7.60;99.90
33093;DHT22;19456;46.104;12.908;2024-03-08T06:57:19;7.60;99.90
33093;DHT22;19456;46.104;12.908;2024-03-08T06:59:48;7.60;99.90
33093;DHT22;19456;46.104;12.908;2024-03-08T07:02:13;7.60;99.90
33093;DHT22;19456;46.104;12.908;2024-03-08T07:04:51;7.50;99.90
33093;DHT22;19456;46.104;12.908;2024-03-08T07:07:32;7.50;99.90
33093;DHT22;19456;46.104;12.908;2024-03-08T07:10:04;7.50;99.90
33093;DHT22;19456;46.104;12.908;2024-03-08T07:28:00;7.40;99.90
33093;DHT22;19456;46.104;12.908;2024-03-08T07:30:29;7.50;99.90
33093;DHT22;19456;46.104;12.908;2024-03-08T07:33:20;7.50;99.90
33093;DHT22;19456;46.104;12.908;2024-03-08T07:35:48;7.60;99.90
33093;DHT22;19456;46.104;12.908;2024-03-08T07:38:15;7.50;99.90
33093;DHT22;19456;46.104;12.908;2024-03-08T07:40:41;7.60;99.90
33093;DHT22;19456;46.104;12.908;2024-03-08T07:43:09;7.70;99.90
33093;DHT22;19456;46.104;12.908;2024-03-08T07:45:36;7.80;99.90
33093;DHT22;19456;46.104;12.908;2024-03-08T07:48:01;7.80;99.90
33093;DHT22;19456;46.104;12.908;2024-03-08T07:50:28;7.70;99.90
33093;DHT22;19456;46.104;12.908;2024-03-08T07:52:54;7.70;99.90
33093;DHT22;19456;46.104;12.908;2024-03-08T07:55:20;7.70;99.90
33093;DHT22;19456;46.104;12.908;2024-03-08T07:57:45;7.70;99.90
33093;DHT22;19456;46.104;12.908;2024-03-08T08:00:13;7.70;99.90
33093;DHT22;19456;46.104;12.908;2024-03-08T08:02:43;7.80;99.90
33093;DHT22;19456;46.104;12.908;2024-03-08T08:05:11;7.80;99.90
33093;DHT22;19456;46.104;12.908;2024-03-08T08:07:36;8.00;99.90
33093;DHT22;19456;46.104;12.908;2024-03-08T08:10:02;8.00;99.90
33093;DHT22;19456;46.104;12.908;2024-03-08T08:12:27;8.00;99.90
33093;DHT22;19456;46.104;12.908;2024-03-08T08:14:54;8.00;99.90
33093;DHT22;19456;46.104;12.908;2024-03-08T08:17:20;7.90;99.90
33093;DHT22;19456;46.104;12.908;2024-03-08T08:19:45;7.90;99.90
33093;DHT22;19456;46.104;12.908;2024-03-08T08:22:11;8.00;99.90
33093;DHT22;19456;46.104;12.908;2024-03-08T08:24:37;8.10;99.90
33093;DHT22;19456;46.104;12.908;2024-03-08T08:27:03;8.10;99.90
33093;DHT22;19456;46.104;12.908;2024-03-08T08:29:28;8.30;99.90
33093;DHT22;19456;46.104;12.908;2024-03-08T08:31:57;8.20;99.90
33093;DHT22;19456;46.104;12.908;2024-03-08T08:34:24;8.20;99.90
33093;DHT22;19456;46.104;12.908;2024-03-08T08:36:52;8.10;99.90
33093;DHT22;19456;46.104;12.908;2024-03-08T08:39:18;8.10;99.90
33093;DHT22;19456;46.104;12.908;2024-03-08T08:41:44;8.10;99.90
33093;DHT22;19456;46.104;12.908;2024-03-08T08:44:09;8.00;99.90
33093;DHT22;19456;46.104;12.908;2024-03-08T08:46:37;8.00;99.90
33093;DHT22;19456;46.104;12.908;2024-03-08T08:49:03;8.20;99.90
33093;DHT22;19456;46.104;12.908;2024-03-08T08:51:29;8.30;99.90
33093;DHT22;19456;46.104;12.908;2024-03-08T08:53:55;8.40;99.90
33093;DHT22;19456;46.104;12.908;2024-03-08T08:56:21;8.30;99.90
33093;DHT22;19456;46.104;12.908;2024-03-08T08:58:47;8.30;99.90
33093;DHT22;19456;46.104;12.908;2024-03-08T09:01:14;8.20;99.90
33093;DHT22;19456;46.104;12.908;2024-03-08T09:03:42;8.20;99.90
33093;DHT22;19456;46.104;12.908;2024-03-08T09:06:12;8.20;99.90
33093;DHT22;19456;46.104;12.908;2024-03-08T09:08:41;8.10;99.90
33093;DHT22;19456;46.104;12.908;2024-03-08T09:11:07;8.10;99.90
33093;DHT22;19456;46.104;12.908;2024-03-08T09:13:33;8.10;99.90
33093;DHT22;19456;46.104;12.908;2024-03-08T09:16:08;8.00;99.90
33093;DHT22;19456;46.104;12.908;2024-03-08T09:18:39;8.00;99.90
33093;DHT22;19456;46.104;12.908;2024-03-08T09:21:04;8.10;99.90
33093;DHT22;19456;46.104;12.908;2024-03-08T09:23:31;8.20;99.90
33093;DHT22;19456;46.104;12.908;2024-03-08T09:25:56;8.20;99.90
33093;DHT22;19456;46.104;12.908;2024-03-08T09:28:25;8.20;99.90
33093;DHT22;19456;46.104;12.908;2024-03-08T09:30:52;8.20;99.90
33093;DHT22;19456;46.104;12.908;2024-03-08T09:33:20;8.20;99.90
33093;DHT22;19456;46.104;12.908;2024-03-08T09:35:47;8.20;99.90
33093;DHT22;19456;46.104;12.908;2024-03-08T09:38:13;8.30;99.90
33093;DHT22;19456;46.104;12.908;2024-03-08T09:40:43;8.40;99.90
33093;DHT22;19456;46.104;12.908;2024-03-08T09:43:12;8.30;99.90
33093;DHT22;19456;46.104;12.908;2024-03-08T09:45:38;8.30;99.90
33093;DHT22;19456;46.104;12.908;2024-03-08T09:48:06;8.30;99.90
33093;DHT22;19456;46.104;12.908;2024-03-08T09:50:34;8.30;99.90
33093;DHT22;19456;46.104;12.908;2024-03-08T09:52:59;8.30;99.90
33093;DHT22;19456;46.104;12.908;2024-03-08T09:55:25;8.40;99.90
33093;DHT22;19456;46.104;12.908;2024-03-08T09:57:53;8.40;99.90
33093;DHT22;19456;46.104;12.908;2024-03-08T10:00:38;8.50;99.90
33093;DHT22;19456;46.104;12.908;2024-03-08T10:03:04;8.40;99.90
33093;DHT22;19456;46.104;12.908;2024-03-08T10:05:30;8.30;99.90
33093;DHT22;19456;46.104;12.908;2024-03-08T10:07:58;8.40;99.90
33093;DHT22;19456;46.104;12.908;2024-03-08T10:10:23;8.40;99.90
33093;DHT22;19456;46.104;12.908;2024-03-08T10:12:49;8.30;99.90
33093;DHT22;19456;46.104;12.908;2024-03-08T10:15:15;8.30;99.90
33093;DHT22;19456;46.104;12.908;2024-03-08T10:17:42;8.30;99.90
33093;DHT22;19456;46.104;12.908;2024-03-08T10:20:15;8.40;99.90
33093;DHT22;19456;46.104;12.908;2024-03-08T10:22:41;8.40;99.90
33093;DHT22;19456;46.104;12.908;2024-03-08T10:25:12;8.40;99.90
33093;DHT22;19456;46.104;12.908;2024-03-08T10:27:38;8.40;99.90
33093;DHT22;19456;46.104;12.908;2024-03-08T10:30:04;8.40;99.90
33093;DHT22;19456;46.104;12.908;2024-03-08T10:32:31;8.30;99.90
33093;DHT22;19456;46.104;12.908;2024-03-08T10:34:57;8.50;99.90
33093;DHT22;19456;46.104;12.908;2024-03-08T10:37:22;8.50;99.90
33093;DHT22;19456;46.104;12.908;2024-03-08T10:40:07;8.50;99.90
33093;DHT22;19456;46.104;12.908;2024-03-08T10:42:59;8.50;99.90
33093;DHT22;19456;46.104;12.908;2024-03-08T10:45:37;8.40;99.90
33093;DHT22;19456;46.104;12.908;2024-03-08T10:50:48;8.50;99.90
33093;DHT22;19456;46.104;12.908;2024-03-08T10:53:18;8.60;99.90
33093;DHT22;19456;46.104;12.908;2024-03-08T10:55:46;8.70;99.90
33093;DHT22;19456;46.104;12.908;2024-03-08T10:58:12;8.80;99.90
33093;DHT22;19456;46.104;12.908;2024-03-08T11:00:37;8.80;99.90
33093;DHT22;19456;46.104;12.908;2024-03-08T11:03:04;9.00;99.90
33093;DHT22;19456;46.104;12.908;2024-03-08T11:05:39;9.00;99.90
33093;DHT22;19456;46.104;12.908;2024-03-08T11:08:05;9.10;99.90
33093;DHT22;19456;46.104;12.908;2024-03-08T11:10:47;9.10;99.90
33093;DHT22;19456;46.104;12.908;2024-03-08T11:13:32;9.10;99.90
33093;DHT22;19456;46.104;12.908;2024-03-08T11:15:58;9.30;99.90
33093;DHT22;19456;46.104;12.908;2024-03-08T11:18:33;9.30;99.90
33093;DHT22;19456;46.104;12.908;2024-03-08T11:21:07;9.30;99.90
33093;DHT22;19456;46.104;12.908;2024-03-08T11:23:37;9.40;99.90
33093;DHT22;19456;46.104;12.908;2024-03-08T11:26:03;9.50;99.90
33093;DHT22;19456;46.104;12.908;2024-03-08T11:28:32;9.60;99.90
33093;DHT22;19456;46.104;12.908;2024-03-08T11:33:29;9.70;99.90
33093;DHT22;19456;46.104;12.908;2024-03-08T11:38:43;9.60;99.90
33093;DHT22;19456;46.104;12.908;2024-03-08T11:41:21;9.50;99.90
33093;DHT22;19456;46.104;12.908;2024-03-08T11:43:48;9.50;99.90
33093;DHT22;19456;46.104;12.908;2024-03-08T11:46:15;9.60;99.90
33093;DHT22;19456;46.104;12.908;2024-03-08T11:48:44;9.60;99.90
33093;DHT22;19456;46.104;12.908;2024-03-08T11:51:13;9.50;99.90
33093;DHT22;19456;46.104;12.908;2024-03-08T11:53:39;9.50;99.90
33093;DHT22;19456;46.104;12.908;2024-03-08T11:56:13;9.60;99.90
33093;DHT22;19456;46.104;12.908;2024-03-08T11:58:38;9.60;99.90
33093;DHT22;19456;46.104;12.908;2024-03-08T12:01:09;9.50;99.90
33093;DHT22;19456;46.104;12.908;2024-03-08T12:03:38;9.40;99.90
33093;DHT22;19456;46.104;12.908;2024-03-08T12:06:04;9.40;99.90
33093;DHT22;19456;46.104;12.908;2024-03-08T12:08:30;9.50;99.90
33093;DHT22;19456;46.104;12.908;2024-03-08T12:10:57;9.50;99.90
33093;DHT22;19456;46.104;12.908;2024-03-08T12:13:29;9.60;99.90
33093;DHT22;19456;46.104;12.908;2024-03-08T12:15:56;9.60;99.90
33093;DHT22;19456;46.104;12.908;2024-03-08T12:18:24;9.70;99.90
33093;DHT22;19456;46.104;12.908;2024-03-08T12:20:49;9.70;99.90
33093;DHT22;19456;46.104;12.908;2024-03-08T12:23:15;9.60;99.90
33093;DHT22;19456;46.104;12.908;2024-03-08T12:25:41;9.50;99.90
33093;DHT22;19456;46.104;12.908;2024-03-08T12:28:10;9.40;99.90
33093;DHT22;19456;46.104;12.908;2024-03-08T12:30:58;9.50;99.90
33093;DHT22;19456;46.104;12.908;2024-03-08T12:33:24;9.50;99.90
33093;DHT22;19456;46.104;12.908;2024-03-08T12:35:54;9.50;99.90
33093;DHT22;19456;46.104;12.908;2024-03-08T12:38:20;9.50;99.90
33093;DHT22;19456;46.104;12.908;2024-03-08T12:40:50;9.40;99.90
33093;DHT22;19456;46.104;12.908;2024-03-08T12:43:16;9.30;99.90
33093;DHT22;19456;46.104;12.908;2024-03-08T12:45:41;9.10;99.90
33093;DHT22;19456;46.104;12.908;2024-03-08T12:48:14;9.20;99.90
33093;DHT22;19456;46.104;12.908;2024-03-08T12:50:43;9.20;99.90
33093;DHT22;19456;46.104;12.908;2024-03-08T12:53:13;9.30;99.90
33093;DHT22;19456;46.104;12.908;2024-03-08T12:55:39;9.40;99.90
33093;DHT22;19456;46.104;12.908;2024-03-08T12:58:05;9.50;99.90
33093;DHT22;19456;46.104;12.908;2024-03-08T13:00:33;9.50;99.90
33093;DHT22;19456;46.104;12.908;2024-03-08T13:03:01;9.50;99.90
33093;DHT22;19456;46.104;12.908;2024-03-08T13:05:27;9.50;99.90
33093;DHT22;19456;46.104;12.908;2024-03-08T13:07:53;9.50;99.90
33093;DHT22;19456;46.104;12.908;2024-03-08T13:10:20;9.50;99.90
33093;DHT22;19456;46.104;12.908;2024-03-08T13:12:45;9.50;99.90
33093;DHT22;19456;46.104;12.908;2024-03-08T13:15:11;9.50;99.90
33093;DHT22;19456;46.104;12.908;2024-03-08T13:17:41;9.70;99.90
33093;DHT22;19456;46.104;12.908;2024-03-08T13:20:08;9.70;99.90
33093;DHT22;19456;46.104;12.908;2024-03-08T13:22:35;9.50;99.90
33093;DHT22;19456;46.104;12.908;2024-03-08T13:25:00;9.40;99.90
33093;DHT22;19456;46.104;12.908;2024-03-08T13:27:29;9.40;99.90
33093;DHT22;19456;46.104;12.908;2024-03-08T13:29:55;9.30;99.90
33093;DHT22;19456;46.104;12.908;2024-03-08T13:32:20;9.10;99.90
33093;DHT22;19456;46.104;12.908;2024-03-08T13:34:47;9.00;99.90
33093;DHT22;19456;46.104;12.908;2024-03-08T13:37:13;8.90;99.90
33093;DHT22;19456;46.104;12.908;2024-03-08T13:39:41;9.00;99.90
33093;DHT22;19456;46.104;12.908;2024-03-08T13:42:09;9.00;99.90
33093;DHT22;19456;46.104;12.908;2024-03-08T13:44:38;9.00;99.90
33093;DHT22;19456;46.104;12.908;2024-03-08T13:47:04;9.10;99.90
33093;DHT22;19456;46.104;12.908;2024-03-08T13:49:30;9.30;99.90
33093;DHT22;19456;46.104;12.908;2024-03-08T13:51:55;9.30;99.90
33093;DHT22;19456;46.104;12.908;2024-03-08T13:54:24;9.30;99.90
33093;DHT22;19456;46.104;12.908;2024-03-08T13:56:49;9.40;99.90
33093;DHT22;19456;46.104;12.908;2024-03-08T13:59:15;9.30;99.90
33093;DHT22;19456;46.104;12.908;2024-03-08T14:01:41;9.40;99.90
33093;DHT22;19456;46.104;12.908;2024-03-08T14:04:08;9.50;99.90
33093;DHT22;19456;46.104;12.908;2024-03-08T14:06:36;9.60;99.90
33093;DHT22;19456;46.104;12.908;2024-03-08T14:09:03;9.70;99.90
33093;DHT22;19456;46.104;12.908;2024-03-08T14:11:29;9.80;99.90
33093;DHT22;19456;46.104;12.908;2024-03-08T14:13:54;9.70;99.90
33093;DHT22;19456;46.104;12.908;2024-03-08T14:16:20;9.80;99.90
33093;DHT22;19456;46.104;12.908;2024-03-08T14:18:46;9.80;99.90
33093;DHT22;19456;46.104;12.908;2024-03-08T14:21:11;10.00;99.90
33093;DHT22;19456;46.104;12.908;2024-03-08T14:23:37;9.90;99.90
33093;DHT22;19456;46.104;12.908;2024-03-08T14:26:03;9.90;99.90
33093;DHT22;19456;46.104;12.908;2024-03-08T14:28:29;9.80;99.90
33093;DHT22;19456;46.104;12.908;2024-03-08T14:30:55;9.80;99.90
33093;DHT22;19456;46.104;12.908;2024-03-08T14:33:20;9.80;99.90
33093;DHT22;19456;46.104;12.908;2024-03-08T14:35:46;9.70;99.90
33093;DHT22;19456;46.104;12.908;2024-03-08T14:38:13;9.70;99.90
33093;DHT22;19456;46.104;12.908;2024-03-08T14:40:42;9.70;99.90
33093;DHT22;19456;46.104;12.908;2024-03-08T14:43:12;9.70;99.90
33093;DHT22;19456;46.104;12.908;2024-03-08T14:45:41;9.70;99.90
33093;DHT22;19456;46.104;12.908;2024-03-08T14:48:07;9.70;99.90
33093;DHT22;19456;46.104;12.908;2024-03-08T14:50:33;9.60;99.90
33093;DHT22;19456;46.104;12.908;2024-03-08T14:52:58;9.50;99.90
33093;DHT22;19456;46.104;12.908;2024-03-08T14:55:25;9.50;99.90
33093;DHT22;19456;46.104;12.908;2024-03-08T14:57:51;9.40;99.90
33093;DHT22;19456;46.104;12.908;2024-03-08T15:00:18;9.30;99.90
33093;DHT22;19456;46.104;12.908;2024-03-08T15:02:55;9.30;99.90
33093;DHT22;19456;46.104;12.908;2024-03-08T15:05:21;9.40;99.90
33093;DHT22;19456;46.104;12.908;2024-03-08T15:07:54;9.50;99.90
33093;DHT22;19456;46.104;12.908;2024-03-08T15:10:20;9.60;99.90
33093;DHT22;19456;46.104;12.908;2024-03-08T15:12:51;9.70;99.90
33093;DHT22;19456;46.104;12.908;2024-03-08T15:15:21;9.70;99.90
33093;DHT22;19456;46.104;12.908;2024-03-08T15:17:48;9.70;99.90
33093;DHT22;19456;46.104;12.908;2024-03-08T15:20:14;9.70;99.90
33093;DHT22;19456;46.104;12.908;2024-03-08T15:22:49;9.70;99.90
33093;DHT22;19456;46.104;12.908;2024-03-08T15:25:15;9.70;99.90
33093;DHT22;19456;46.104;12.908;2024-03-08T15:27:54;9.60;99.90
33093;DHT22;19456;46.104;12.908;2024-03-08T15:30:20;9.50;99.90
33093;DHT22;19456;46.104;12.908;2024-03-08T15:32:51;9.50;99.90
33093;DHT22;19456;46.104;12.908;2024-03-08T15:35:22;9.50;99.90
33093;DHT22;19456;46.104;12.908;2024-03-08T15:37:51;9.50;99.90
33093;DHT22;19456;46.104;12.908;2024-03-08T15:40:24;9.50;99.90
33093;DHT22;19456;46.104;12.908;2024-03-08T15:46:20;9.40;99.90
33093;DHT22;19456;46.104;12.908;2024-03-08T15:48:48;9.40;99.90
33093;DHT22;19456;46.104;12.908;2024-03-08T15:51:14;9.40;99.90
33093;DHT22;19456;46.104;12.908;2024-03-08T15:53:41;9.30;99.90
33093;DHT22;19456;46.104;12.908;2024-03-08T15:56:07;9.30;99.90
33093;DHT22;19456;46.104;12.908;2024-03-08T15:58:33;9.30;99.90
33093;DHT22;19456;46.104;12.908;2024-03-08T16:01:02;9.20;99.90
33093;DHT22;19456;46.104;12.908;2024-03-08T16:03:35;9.20;99.90